sensor_id;sensor_type;location;lat;lon;timestamp;P1;durP1;ratioP1;P2;durP2;ratioP2
13327;SDS011;6733;51.044;3.746;2023-07-16T00:00:04;7.67;;;3.63;;
13327;SDS011;6733;51.044;3.746;2023-07-16T00:02:30;7.13;;;3.80;;
13327;SDS011;6733;51.044;3.746;2023-07-16T00:04:56;7.63;;;4.10;;
13327;SDS011;6733;51.044;3.746;2023-07-16T00:07:22;8.90;;;3.83;;
13327;SDS011;6733;51.044;3.746;2023-07-16T00:09:49;8.30;;;3.80;;
13327;SDS011;6733;51.044;3.746;2023-07-16T00:12:15;8.70;;;3.63;;
13327;SDS011;6733;51.044;3.746;2023-07-16T00:14:41;8.10;;;3.57;;
13327;SDS011;6733;51.044;3.746;2023-07-16T00:17:07;12.67;;;3.87;;
13327;SDS011;6733;51.044;3.746;2023-07-16T00:19:33;10.53;;;3.80;;
13327;SDS011;6733;51.044;3.746;2023-07-16T00:21:59;7.87;;;3.50;;
13327;SDS011;6733;51.044;3.746;2023-07-16T00:24:26;8.53;;;3.60;;
13327;SDS011;6733;51.044;3.746;2023-07-16T00:26:52;12.33;;;3.70;;
13327;SDS011;6733;51.044;3.746;2023-07-16T00:29:18;6.63;;;3.63;;
13327;SDS011;6733;51.044;3.746;2023-07-16T00:31:44;9.70;;;4.10;;
13327;SDS011;6733;51.044;3.746;2023-07-16T00:34:10;5.80;;;3.53;;
13327;SDS011;6733;51.044;3.746;2023-07-16T00:36:38;7.50;;;3.70;;
13327;SDS011;6733;51.044;3.746;2023-07-16T00:39:05;6.63;;;3.50;;
13327;SDS011;6733;51.044;3.746;2023-07-16T00:41:31;7.00;;;3.70;;
13327;SDS011;6733;51.044;3.746;2023-07-16T00:43:57;8.80;;;3.80;;
13327;SDS011;6733;51.044;3.746;2023-07-16T00:46:23;7.90;;;3.70;;
13327;SDS011;6733;51.044;3.746;2023-07-16T00:48:50;10.00;;;4.33;;
13327;SDS011;6733;51.044;3.746;2023-07-16T00:51:17;9.27;;;3.50;;
13327;SDS011;6733;51.044;3.746;2023-07-16T00:53:44;10.50;;;3.60;;
13327;SDS011;6733;51.044;3.746;2023-07-16T00:56:12;11.63;;;3.80;;
13327;SDS011;6733;51.044;3.746;2023-07-16T00:58:42;7.30;;;3.70;;
13327;SDS011;6733;51.044;3.746;2023-07-16T01:01:08;9.70;;;3.87;;
13327;SDS011;6733;51.044;3.746;2023-07-16T01:03:34;10.13;;;4.10;;
13327;SDS011;6733;51.044;3.746;2023-07-16T01:06:05;9.77;;;3.67;;
13327;SDS011;6733;51.044;3.746;2023-07-16T01:08:47;8.27;;;3.57;;
13327;SDS011;6733;51.044;3.746;2023-07-16T01:11:20;5.67;;;3.60;;
13327;SDS011;6733;51.044;3.746;2023-07-16T01:13:48;5.10;;;3.70;;
13327;SDS011;6733;51.044;3.746;2023-07-16T01:16:21;8.60;;;3.80;;
13327;SDS011;6733;51.044;3.746;2023-07-16T01:18:48;7.70;;;3.90;;
13327;SDS011;6733;51.044;3.746;2023-07-16T01:21:16;8.00;;;4.10;;
13327;SDS011;6733;51.044;3.746;2023-07-16T01:26:53;8.17;;;4.40;;
13327;SDS011;6733;51.044;3.746;2023-07-16T01:29:37;10.97;;;4.97;;
13327;SDS011;6733;51.044;3.746;2023-07-16T01:32:07;7.87;;;5.10;;
13327;SDS011;6733;51.044;3.746;2023-07-16T01:34:37;7.27;;;4.77;;
13327;SDS011;6733;51.044;3.746;2023-07-16T01:37:04;6.30;;;4.30;;
13327;SDS011;6733;51.044;3.746;2023-07-16T01:39:31;8.97;;;4.70;;
13327;SDS011;6733;51.044;3.746;2023-07-16T01:42:01;7.17;;;4.47;;
13327;SDS011;6733;51.044;3.746;2023-07-16T01:44:28;10.17;;;5.13;;
13327;SDS011;6733;51.044;3.746;2023-07-16T01:47:10;7.63;;;4.47;;
13327;SDS011;6733;51.044;3.746;2023-07-16T01:49:43;8.23;;;4.70;;
13327;SDS011;6733;51.044;3.746;2023-07-16T01:52:09;9.10;;;4.77;;
13327;SDS011;6733;51.044;3.746;2023-07-16T01:54:36;5.47;;;4.17;;
13327;SDS011;6733;51.044;3.746;2023-07-16T01:57:02;9.90;;;4.17;;
13327;SDS011;6733;51.044;3.746;2023-07-16T01:59:28;6.57;;;3.60;;
13327;SDS011;6733;51.044;3.746;2023-07-16T02:01:54;8.60;;;4.00;;
13327;SDS011;6733;51.044;3.746;2023-07-16T02:04:21;12.03;;;3.93;;
13327;SDS011;6733;51.044;3.746;2023-07-16T02:06:47;8.27;;;4.33;;
13327;SDS011;6733;51.044;3.746;2023-07-16T02:09:16;7.37;;;4.27;;
13327;SDS011;6733;51.044;3.746;2023-07-16T02:11:42;8.53;;;4.53;;
13327;SDS011;6733;51.044;3.746;2023-07-16T02:14:08;7.00;;;4.10;;
13327;SDS011;6733;51.044;3.746;2023-07-16T02:16:35;8.27;;;4.33;;
13327;SDS011;6733;51.044;3.746;2023-07-16T02:19:01;6.87;;;4.40;;
13327;SDS011;6733;51.044;3.746;2023-07-16T02:21:27;7.60;;;4.13;;
13327;SDS011;6733;51.044;3.746;2023-07-16T02:23:53;6.00;;;4.50;;
13327;SDS011;6733;51.044;3.746;2023-07-16T02:26:19;6.83;;;5.13;;
13327;SDS011;6733;51.044;3.746;2023-07-16T02:28:45;7.73;;;4.97;;
13327;SDS011;6733;51.044;3.746;2023-07-16T02:31:11;6.77;;;4.63;;
13327;SDS011;6733;51.044;3.746;2023-07-16T02:34:02;10.63;;;5.10;;
13327;SDS011;6733;51.044;3.746;2023-07-16T02:36:53;5.60;;;4.47;;
13327;SDS011;6733;51.044;3.746;2023-07-16T02:39:44;9.03;;;5.60;;
13327;SDS011;6733;51.044;3.746;2023-07-16T02:42:39;10.67;;;5.53;;
13327;SDS011;6733;51.044;3.746;2023-07-16T02:45:30;7.10;;;5.20;;
13327;SDS011;6733;51.044;3.746;2023-07-16T02:48:21;7.43;;;5.00;;
13327;SDS011;6733;51.044;3.746;2023-07-16T02:51:12;7.27;;;5.10;;
13327;SDS011;6733;51.044;3.746;2023-07-16T02:54:03;9.90;;;5.53;;
13327;SDS011;6733;51.044;3.746;2023-07-16T02:56:54;10.27;;;5.10;;
13327;SDS011;6733;51.044;3.746;2023-07-16T02:59:45;6.30;;;5.20;;
13327;SDS011;6733;51.044;3.746;2023-07-16T03:02:11;9.47;;;4.90;;
13327;SDS011;6733;51.044;3.746;2023-07-16T03:04:37;7.67;;;4.77;;
13327;SDS011;6733;51.044;3.746;2023-07-16T03:07:03;9.70;;;5.50;;
13327;SDS011;6733;51.044;3.746;2023-07-16T03:09:30;6.10;;;4.70;;
13327;SDS011;6733;51.044;3.746;2023-07-16T03:11:56;7.27;;;5.03;;
13327;SDS011;6733;51.044;3.746;2023-07-16T03:14:22;13.17;;;6.00;;
13327;SDS011;6733;51.044;3.746;2023-07-16T03:16:49;9.87;;;5.37;;
13327;SDS011;6733;51.044;3.746;2023-07-16T03:19:15;8.70;;;5.53;;
13327;SDS011;6733;51.044;3.746;2023-07-16T03:21:41;7.67;;;5.33;;
13327;SDS011;6733;51.044;3.746;2023-07-16T03:24:07;8.90;;;5.50;;
13327;SDS011;6733;51.044;3.746;2023-07-16T03:26:33;8.43;;;5.37;;
13327;SDS011;6733;51.044;3.746;2023-07-16T03:28:59;9.23;;;5.70;;
13327;SDS011;6733;51.044;3.746;2023-07-16T03:31:25;10.97;;;6.00;;
13327;SDS011;6733;51.044;3.746;2023-07-16T03:33:51;8.73;;;5.70;;
13327;SDS011;6733;51.044;3.746;2023-07-16T03:36:18;9.30;;;5.77;;
13327;SDS011;6733;51.044;3.746;2023-07-16T03:38:44;10.47;;;5.43;;
13327;SDS011;6733;51.044;3.746;2023-07-16T03:41:11;10.23;;;5.57;;
13327;SDS011;6733;51.044;3.746;2023-07-16T03:43:37;9.10;;;5.70;;
13327;SDS011;6733;51.044;3.746;2023-07-16T03:46:03;9.63;;;5.67;;
13327;SDS011;6733;51.044;3.746;2023-07-16T03:48:32;13.10;;;6.80;;
13327;SDS011;6733;51.044;3.746;2023-07-16T03:50:58;10.57;;;6.23;;
13327;SDS011;6733;51.044;3.746;2023-07-16T03:53:24;8.17;;;5.93;;
13327;SDS011;6733;51.044;3.746;2023-07-16T03:55:51;8.13;;;6.23;;
13327;SDS011;6733;51.044;3.746;2023-07-16T03:58:17;10.73;;;6.43;;
13327;SDS011;6733;51.044;3.746;2023-07-16T04:00:43;8.67;;;6.20;;
13327;SDS011;6733;51.044;3.746;2023-07-16T04:03:09;11.37;;;6.50;;
13327;SDS011;6733;51.044;3.746;2023-07-16T04:05:36;10.57;;;6.27;;
13327;SDS011;6733;51.044;3.746;2023-07-16T04:08:02;11.00;;;6.67;;
13327;SDS011;6733;51.044;3.746;2023-07-16T04:10:28;10.30;;;6.63;;
13327;SDS011;6733;51.044;3.746;2023-07-16T04:12:54;11.23;;;6.57;;
13327;SDS011;6733;51.044;3.746;2023-07-16T04:15:20;12.90;;;7.03;;
13327;SDS011;6733;51.044;3.746;2023-07-16T04:17:46;13.27;;;6.93;;
13327;SDS011;6733;51.044;3.746;2023-07-16T04:20:13;12.23;;;6.33;;
13327;SDS011;6733;51.044;3.746;2023-07-16T04:22:39;10.20;;;7.17;;
13327;SDS011;6733;51.044;3.746;2023-07-16T04:25:05;10.07;;;6.87;;
13327;SDS011;6733;51.044;3.746;2023-07-16T04:27:31;10.73;;;6.13;;
13327;SDS011;6733;51.044;3.746;2023-07-16T04:29:57;10.77;;;6.63;;
13327;SDS011;6733;51.044;3.746;2023-07-16T04:32:24;9.93;;;6.57;;
13327;SDS011;6733;51.044;3.746;2023-07-16T04:34:50;12.73;;;6.77;;
13327;SDS011;6733;51.044;3.746;2023-07-16T04:37:16;9.57;;;6.43;;
13327;SDS011;6733;51.044;3.746;2023-07-16T04:39:42;14.63;;;7.50;;
13327;SDS011;6733;51.044;3.746;2023-07-16T04:42:08;10.77;;;6.87;;
13327;SDS011;6733;51.044;3.746;2023-07-16T04:44:34;10.30;;;7.00;;
13327;SDS011;6733;51.044;3.746;2023-07-16T04:47:00;10.73;;;6.67;;
13327;SDS011;6733;51.044;3.746;2023-07-16T04:49:26;10.27;;;6.60;;
13327;SDS011;6733;51.044;3.746;2023-07-16T04:51:53;11.80;;;7.13;;
13327;SDS011;6733;51.044;3.746;2023-07-16T04:54:19;12.20;;;7.70;;
13327;SDS011;6733;51.044;3.746;2023-07-16T04:56:45;11.63;;;7.10;;
13327;SDS011;6733;51.044;3.746;2023-07-16T04:59:11;12.67;;;7.40;;
13327;SDS011;6733;51.044;3.746;2023-07-16T05:01:37;11.23;;;7.10;;
13327;SDS011;6733;51.044;3.746;2023-07-16T05:04:03;11.83;;;7.40;;
13327;SDS011;6733;51.044;3.746;2023-07-16T05:06:29;14.50;;;7.57;;
13327;SDS011;6733;51.044;3.746;2023-07-16T05:08:55;11.07;;;7.00;;
13327;SDS011;6733;51.044;3.746;2023-07-16T05:11:22;13.60;;;7.50;;
13327;SDS011;6733;51.044;3.746;2023-07-16T05:13:48;11.43;;;7.50;;
13327;SDS011;6733;51.044;3.746;2023-07-16T05:16:14;10.40;;;7.17;;
13327;SDS011;6733;51.044;3.746;2023-07-16T05:18:40;13.03;;;8.00;;
13327;SDS011;6733;51.044;3.746;2023-07-16T05:21:06;12.70;;;8.07;;
13327;SDS011;6733;51.044;3.746;2023-07-16T05:23:32;13.87;;;8.30;;
13327;SDS011;6733;51.044;3.746;2023-07-16T05:25:58;12.87;;;7.33;;
13327;SDS011;6733;51.044;3.746;2023-07-16T05:28:24;11.20;;;7.07;;
13327;SDS011;6733;51.044;3.746;2023-07-16T05:30:58;13.33;;;8.70;;
13327;SDS011;6733;51.044;3.746;2023-07-16T05:33:25;16.80;;;8.37;;
13327;SDS011;6733;51.044;3.746;2023-07-16T05:35:51;11.03;;;7.60;;
13327;SDS011;6733;51.044;3.746;2023-07-16T05:38:17;12.50;;;8.30;;
13327;SDS011;6733;51.044;3.746;2023-07-16T05:40:43;10.67;;;7.93;;
13327;SDS011;6733;51.044;3.746;2023-07-16T05:43:09;9.33;;;6.93;;
13327;SDS011;6733;51.044;3.746;2023-07-16T05:45:36;12.33;;;7.70;;
13327;SDS011;6733;51.044;3.746;2023-07-16T05:48:03;13.97;;;8.00;;
13327;SDS011;6733;51.044;3.746;2023-07-16T05:50:29;13.97;;;7.40;;
13327;SDS011;6733;51.044;3.746;2023-07-16T05:52:55;11.07;;;8.07;;
13327;SDS011;6733;51.044;3.746;2023-07-16T05:55:21;11.37;;;8.10;;
13327;SDS011;6733;51.044;3.746;2023-07-16T05:57:47;12.70;;;8.70;;
13327;SDS011;6733;51.044;3.746;2023-07-16T06:00:13;10.50;;;8.13;;
13327;SDS011;6733;51.044;3.746;2023-07-16T06:02:40;8.97;;;7.70;;
13327;SDS011;6733;51.044;3.746;2023-07-16T06:05:06;13.30;;;8.03;;
13327;SDS011;6733;51.044;3.746;2023-07-16T06:07:32;12.30;;;8.00;;
13327;SDS011;6733;51.044;3.746;2023-07-16T06:09:59;12.03;;;7.93;;
13327;SDS011;6733;51.044;3.746;2023-07-16T06:12:25;10.97;;;7.83;;
13327;SDS011;6733;51.044;3.746;2023-07-16T06:14:51;13.53;;;8.27;;
13327;SDS011;6733;51.044;3.746;2023-07-16T06:17:18;13.47;;;7.80;;
13327;SDS011;6733;51.044;3.746;2023-07-16T06:19:45;13.80;;;7.33;;
13327;SDS011;6733;51.044;3.746;2023-07-16T06:22:11;14.80;;;8.37;;
13327;SDS011;6733;51.044;3.746;2023-07-16T06:24:37;10.67;;;8.27;;
13327;SDS011;6733;51.044;3.746;2023-07-16T06:27:03;13.13;;;7.43;;
13327;SDS011;6733;51.044;3.746;2023-07-16T06:29:29;11.20;;;7.47;;
13327;SDS011;6733;51.044;3.746;2023-07-16T06:31:56;12.07;;;7.77;;
13327;SDS011;6733;51.044;3.746;2023-07-16T06:34:23;11.50;;;8.20;;
13327;SDS011;6733;51.044;3.746;2023-07-16T06:36:50;15.23;;;8.67;;
13327;SDS011;6733;51.044;3.746;2023-07-16T06:39:16;14.00;;;8.27;;
13327;SDS011;6733;51.044;3.746;2023-07-16T06:41:42;12.10;;;8.67;;
13327;SDS011;6733;51.044;3.746;2023-07-16T06:44:08;10.67;;;7.90;;
13327;SDS011;6733;51.044;3.746;2023-07-16T06:46:35;12.03;;;7.70;;
13327;SDS011;6733;51.044;3.746;2023-07-16T06:49:01;14.87;;;8.10;;
13327;SDS011;6733;51.044;3.746;2023-07-16T06:51:27;11.70;;;7.80;;
13327;SDS011;6733;51.044;3.746;2023-07-16T06:53:55;13.23;;;8.30;;
13327;SDS011;6733;51.044;3.746;2023-07-16T06:56:21;16.33;;;7.97;;
13327;SDS011;6733;51.044;3.746;2023-07-16T06:58:48;14.27;;;8.13;;
13327;SDS011;6733;51.044;3.746;2023-07-16T07:01:14;13.03;;;7.97;;
13327;SDS011;6733;51.044;3.746;2023-07-16T07:03:40;12.47;;;7.83;;
13327;SDS011;6733;51.044;3.746;2023-07-16T07:06:06;11.37;;;7.77;;
13327;SDS011;6733;51.044;3.746;2023-07-16T07:08:32;11.73;;;7.40;;
13327;SDS011;6733;51.044;3.746;2023-07-16T07:10:58;10.90;;;7.37;;
13327;SDS011;6733;51.044;3.746;2023-07-16T07:13:24;12.90;;;7.27;;
13327;SDS011;6733;51.044;3.746;2023-07-16T07:15:51;13.10;;;7.73;;
13327;SDS011;6733;51.044;3.746;2023-07-16T07:18:17;14.03;;;7.70;;
13327;SDS011;6733;51.044;3.746;2023-07-16T07:20:43;10.37;;;7.67;;
13327;SDS011;6733;51.044;3.746;2023-07-16T07:23:09;10.07;;;6.60;;
13327;SDS011;6733;51.044;3.746;2023-07-16T07:25:35;9.83;;;7.33;;
13327;SDS011;6733;51.044;3.746;2023-07-16T07:28:01;10.67;;;6.90;;
13327;SDS011;6733;51.044;3.746;2023-07-16T07:30:28;15.87;;;7.77;;
13327;SDS011;6733;51.044;3.746;2023-07-16T07:32:54;11.83;;;7.70;;
13327;SDS011;6733;51.044;3.746;2023-07-16T07:35:20;11.63;;;7.50;;
13327;SDS011;6733;51.044;3.746;2023-07-16T07:37:46;9.93;;;7.43;;
13327;SDS011;6733;51.044;3.746;2023-07-16T07:40:13;11.20;;;7.33;;
13327;SDS011;6733;51.044;3.746;2023-07-16T07:42:39;12.53;;;7.43;;
13327;SDS011;6733;51.044;3.746;2023-07-16T07:45:05;12.67;;;7.40;;
13327;SDS011;6733;51.044;3.746;2023-07-16T07:47:32;12.93;;;7.37;;
13327;SDS011;6733;51.044;3.746;2023-07-16T07:49:58;10.87;;;6.83;;
13327;SDS011;6733;51.044;3.746;2023-07-16T07:52:26;10.77;;;7.20;;
13327;SDS011;6733;51.044;3.746;2023-07-16T07:54:52;13.40;;;7.27;;
13327;SDS011;6733;51.044;3.746;2023-07-16T07:57:19;12.67;;;7.70;;
13327;SDS011;6733;51.044;3.746;2023-07-16T07:59:45;9.10;;;6.67;;
13327;SDS011;6733;51.044;3.746;2023-07-16T08:02:12;11.30;;;6.77;;
13327;SDS011;6733;51.044;3.746;2023-07-16T08:04:38;11.57;;;6.77;;
13327;SDS011;6733;51.044;3.746;2023-07-16T08:07:04;14.50;;;7.30;;
13327;SDS011;6733;51.044;3.746;2023-07-16T08:09:30;9.57;;;6.63;;
13327;SDS011;6733;51.044;3.746;2023-07-16T08:11:56;13.70;;;6.77;;
13327;SDS011;6733;51.044;3.746;2023-07-16T08:14:22;12.00;;;6.70;;
13327;SDS011;6733;51.044;3.746;2023-07-16T08:16:48;12.30;;;6.80;;
13327;SDS011;6733;51.044;3.746;2023-07-16T08:19:15;10.27;;;6.33;;
13327;SDS011;6733;51.044;3.746;2023-07-16T08:21:43;9.13;;;6.53;;
13327;SDS011;6733;51.044;3.746;2023-07-16T08:24:09;9.00;;;6.40;;
13327;SDS011;6733;51.044;3.746;2023-07-16T08:26:35;10.03;;;6.37;;
13327;SDS011;6733;51.044;3.746;2023-07-16T08:29:01;11.90;;;6.90;;
13327;SDS011;6733;51.044;3.746;2023-07-16T08:31:28;15.03;;;7.00;;
13327;SDS011;6733;51.044;3.746;2023-07-16T08:33:54;10.43;;;6.37;;
13327;SDS011;6733;51.044;3.746;2023-07-16T08:36:20;12.47;;;6.37;;
13327;SDS011;6733;51.044;3.746;2023-07-16T08:38:46;11.03;;;6.27;;
13327;SDS011;6733;51.044;3.746;2023-07-16T08:41:13;8.83;;;6.77;;
13327;SDS011;6733;51.044;3.746;2023-07-16T08:43:40;9.63;;;6.53;;
13327;SDS011;6733;51.044;3.746;2023-07-16T08:46:08;14.63;;;6.87;;
13327;SDS011;6733;51.044;3.746;2023-07-16T08:48:34;11.60;;;6.70;;
13327;SDS011;6733;51.044;3.746;2023-07-16T08:51:02;15.17;;;6.70;;
13327;SDS011;6733;51.044;3.746;2023-07-16T08:53:29;12.67;;;7.10;;
13327;SDS011;6733;51.044;3.746;2023-07-16T08:55:55;12.80;;;6.83;;
13327;SDS011;6733;51.044;3.746;2023-07-16T08:58:23;9.83;;;6.90;;
13327;SDS011;6733;51.044;3.746;2023-07-16T09:00:49;14.00;;;7.63;;
13327;SDS011;6733;51.044;3.746;2023-07-16T09:03:17;8.73;;;6.57;;
13327;SDS011;6733;51.044;3.746;2023-07-16T09:05:46;12.80;;;7.10;;
13327;SDS011;6733;51.044;3.746;2023-07-16T09:08:13;8.77;;;6.47;;
13327;SDS011;6733;51.044;3.746;2023-07-16T09:10:40;8.67;;;6.40;;
13327;SDS011;6733;51.044;3.746;2023-07-16T09:13:07;11.47;;;6.87;;
13327;SDS011;6733;51.044;3.746;2023-07-16T09:15:33;9.87;;;7.17;;
13327;SDS011;6733;51.044;3.746;2023-07-16T09:18:00;12.33;;;6.63;;
13327;SDS011;6733;51.044;3.746;2023-07-16T09:20:26;15.30;;;6.73;;
13327;SDS011;6733;51.044;3.746;2023-07-16T09:22:58;9.27;;;6.07;;
13327;SDS011;6733;51.044;3.746;2023-07-16T09:25:26;10.90;;;6.13;;
13327;SDS011;6733;51.044;3.746;2023-07-16T09:27:52;8.20;;;6.07;;
13327;SDS011;6733;51.044;3.746;2023-07-16T09:30:20;8.43;;;5.60;;
13327;SDS011;6733;51.044;3.746;2023-07-16T09:32:46;9.10;;;5.30;;
13327;SDS011;6733;51.044;3.746;2023-07-16T09:35:13;8.43;;;4.53;;
13327;SDS011;6733;51.044;3.746;2023-07-16T09:37:43;9.63;;;4.13;;
13327;SDS011;6733;51.044;3.746;2023-07-16T09:40:10;7.47;;;4.67;;
13327;SDS011;6733;51.044;3.746;2023-07-16T09:42:37;3.93;;;3.50;;
13327;SDS011;6733;51.044;3.746;2023-07-16T09:45:08;9.10;;;3.57;;
13327;SDS011;6733;51.044;3.746;2023-07-16T09:47:43;5.87;;;3.00;;
13327;SDS011;6733;51.044;3.746;2023-07-16T09:50:10;4.33;;;2.70;;
13327;SDS011;6733;51.044;3.746;2023-07-16T09:52:37;5.17;;;3.17;;
13327;SDS011;6733;51.044;3.746;2023-07-16T09:55:05;4.67;;;3.27;;
13327;SDS011;6733;51.044;3.746;2023-07-16T09:57:41;5.33;;;2.80;;
13327;SDS011;6733;51.044;3.746;2023-07-16T10:00:09;4.57;;;2.70;;
13327;SDS011;6733;51.044;3.746;2023-07-16T10:02:40;3.63;;;2.80;;
13327;SDS011;6733;51.044;3.746;2023-07-16T10:05:17;3.53;;;2.70;;
13327;SDS011;6733;51.044;3.746;2023-07-16T10:07:51;3.50;;;2.50;;
13327;SDS011;6733;51.044;3.746;2023-07-16T10:10:19;5.30;;;2.70;;
13327;SDS011;6733;51.044;3.746;2023-07-16T10:12:56;6.97;;;2.80;;
13327;SDS011;6733;51.044;3.746;2023-07-16T10:15:28;3.90;;;2.53;;
13327;SDS011;6733;51.044;3.746;2023-07-16T10:17:55;10.67;;;4.60;;
13327;SDS011;6733;51.044;3.746;2023-07-16T10:20:31;7.60;;;2.53;;
13327;SDS011;6733;51.044;3.746;2023-07-16T10:23:09;5.63;;;2.67;;
13327;SDS011;6733;51.044;3.746;2023-07-16T10:25:38;7.53;;;4.90;;
13327;SDS011;6733;51.044;3.746;2023-07-16T10:28:04;3.97;;;2.90;;
13327;SDS011;6733;51.044;3.746;2023-07-16T10:30:31;4.60;;;2.40;;
13327;SDS011;6733;51.044;3.746;2023-07-16T10:32:58;5.63;;;2.90;;
13327;SDS011;6733;51.044;3.746;2023-07-16T10:35:28;8.13;;;2.60;;
13327;SDS011;6733;51.044;3.746;2023-07-16T10:37:54;3.27;;;2.47;;
13327;SDS011;6733;51.044;3.746;2023-07-16T10:40:20;4.73;;;2.20;;
13327;SDS011;6733;51.044;3.746;2023-07-16T10:42:46;9.87;;;3.83;;
13327;SDS011;6733;51.044;3.746;2023-07-16T10:45:12;5.27;;;3.03;;
13327;SDS011;6733;51.044;3.746;2023-07-16T10:47:50;4.40;;;2.10;;
13327;SDS011;6733;51.044;3.746;2023-07-16T10:50:20;7.00;;;2.37;;
13327;SDS011;6733;51.044;3.746;2023-07-16T10:52:53;5.47;;;2.83;;
13327;SDS011;6733;51.044;3.746;2023-07-16T10:55:20;3.97;;;2.70;;
13327;SDS011;6733;51.044;3.746;2023-07-16T10:57:47;4.47;;;3.47;;
13327;SDS011;6733;51.044;3.746;2023-07-16T11:00:15;6.30;;;3.13;;
13327;SDS011;6733;51.044;3.746;2023-07-16T11:02:42;6.80;;;2.97;;
13327;SDS011;6733;51.044;3.746;2023-07-16T11:05:12;4.40;;;2.40;;
13327;SDS011;6733;51.044;3.746;2023-07-16T11:07:46;4.73;;;3.30;;
13327;SDS011;6733;51.044;3.746;2023-07-16T11:10:17;4.63;;;3.07;;
13327;SDS011;6733;51.044;3.746;2023-07-16T11:12:44;5.90;;;2.80;;
13327;SDS011;6733;51.044;3.746;2023-07-16T11:15:15;3.97;;;2.60;;
13327;SDS011;6733;51.044;3.746;2023-07-16T11:17:41;5.93;;;2.70;;
13327;SDS011;6733;51.044;3.746;2023-07-16T11:20:08;5.40;;;3.00;;
13327;SDS011;6733;51.044;3.746;2023-07-16T11:22:38;5.03;;;2.93;;
13327;SDS011;6733;51.044;3.746;2023-07-16T11:25:10;3.93;;;2.90;;
13327;SDS011;6733;51.044;3.746;2023-07-16T11:27:40;6.37;;;3.13;;
13327;SDS011;6733;51.044;3.746;2023-07-16T11:30:07;4.93;;;2.83;;
13327;SDS011;6733;51.044;3.746;2023-07-16T11:32:34;4.93;;;3.20;;
13327;SDS011;6733;51.044;3.746;2023-07-16T11:35:03;8.03;;;3.47;;
13327;SDS011;6733;51.044;3.746;2023-07-16T11:37:34;6.03;;;3.40;;
13327;SDS011;6733;51.044;3.746;2023-07-16T11:40:05;6.20;;;3.33;;
13327;SDS011;6733;51.044;3.746;2023-07-16T11:42:39;5.97;;;3.60;;
13327;SDS011;6733;51.044;3.746;2023-07-16T11:45:14;5.03;;;3.30;;
13327;SDS011;6733;51.044;3.746;2023-07-16T11:47:45;5.77;;;3.33;;
13327;SDS011;6733;51.044;3.746;2023-07-16T11:50:12;8.63;;;3.70;;
13327;SDS011;6733;51.044;3.746;2023-07-16T11:52:39;4.37;;;3.20;;
13327;SDS011;6733;51.044;3.746;2023-07-16T11:55:06;4.47;;;3.27;;
13327;SDS011;6733;51.044;3.746;2023-07-16T11:57:33;6.97;;;3.83;;
13327;SDS011;6733;51.044;3.746;2023-07-16T12:00:00;7.97;;;3.73;;
13327;SDS011;6733;51.044;3.746;2023-07-16T12:02:28;7.50;;;3.30;;
13327;SDS011;6733;51.044;3.746;2023-07-16T12:04:55;6.23;;;3.60;;
13327;SDS011;6733;51.044;3.746;2023-07-16T12:07:31;7.23;;;3.43;;
13327;SDS011;6733;51.044;3.746;2023-07-16T12:10:02;6.93;;;5.20;;
13327;SDS011;6733;51.044;3.746;2023-07-16T12:12:30;7.17;;;3.17;;
13327;SDS011;6733;51.044;3.746;2023-07-16T12:14:57;5.17;;;3.00;;
13327;SDS011;6733;51.044;3.746;2023-07-16T12:17:23;4.63;;;2.93;;
13327;SDS011;6733;51.044;3.746;2023-07-16T12:19:50;6.63;;;3.70;;
13327;SDS011;6733;51.044;3.746;2023-07-16T12:22:17;7.30;;;3.57;;
13327;SDS011;6733;51.044;3.746;2023-07-16T12:24:44;4.63;;;3.20;;
13327;SDS011;6733;51.044;3.746;2023-07-16T12:27:11;6.33;;;3.20;;
13327;SDS011;6733;51.044;3.746;2023-07-16T12:29:40;4.77;;;3.10;;
13327;SDS011;6733;51.044;3.746;2023-07-16T12:32:06;5.53;;;3.20;;
13327;SDS011;6733;51.044;3.746;2023-07-16T12:34:34;6.10;;;3.20;;
13327;SDS011;6733;51.044;3.746;2023-07-16T12:37:00;3.67;;;3.10;;
13327;SDS011;6733;51.044;3.746;2023-07-16T12:39:26;4.23;;;2.90;;
13327;SDS011;6733;51.044;3.746;2023-07-16T12:41:53;4.80;;;2.77;;
13327;SDS011;6733;51.044;3.746;2023-07-16T12:44:20;5.07;;;3.43;;
13327;SDS011;6733;51.044;3.746;2023-07-16T12:46:46;4.67;;;3.10;;
13327;SDS011;6733;51.044;3.746;2023-07-16T12:49:12;3.90;;;2.73;;
13327;SDS011;6733;51.044;3.746;2023-07-16T12:51:40;7.93;;;3.10;;
13327;SDS011;6733;51.044;3.746;2023-07-16T12:54:07;4.83;;;2.70;;
13327;SDS011;6733;51.044;3.746;2023-07-16T12:56:33;5.90;;;3.20;;
13327;SDS011;6733;51.044;3.746;2023-07-16T12:58:59;4.80;;;3.00;;
13327;SDS011;6733;51.044;3.746;2023-07-16T13:01:26;4.70;;;3.27;;
13327;SDS011;6733;51.044;3.746;2023-07-16T13:03:52;4.53;;;3.17;;
13327;SDS011;6733;51.044;3.746;2023-07-16T13:06:18;5.07;;;3.00;;
13327;SDS011;6733;51.044;3.746;2023-07-16T13:08:44;4.83;;;2.80;;
13327;SDS011;6733;51.044;3.746;2023-07-16T13:11:10;6.50;;;3.63;;
13327;SDS011;6733;51.044;3.746;2023-07-16T13:13:36;4.83;;;3.20;;
13327;SDS011;6733;51.044;3.746;2023-07-16T13:16:03;6.10;;;3.53;;
13327;SDS011;6733;51.044;3.746;2023-07-16T13:18:29;5.20;;;3.17;;
13327;SDS011;6733;51.044;3.746;2023-07-16T13:20:55;4.90;;;3.30;;
13327;SDS011;6733;51.044;3.746;2023-07-16T13:23:21;5.30;;;3.00;;
13327;SDS011;6733;51.044;3.746;2023-07-16T13:25:47;4.87;;;3.10;;
13327;SDS011;6733;51.044;3.746;2023-07-16T13:28:16;4.43;;;2.88;;
13327;SDS011;6733;51.044;3.746;2023-07-16T13:30:43;5.22;;;3.35;;
13327;SDS011;6733;51.044;3.746;2023-07-16T13:33:09;5.63;;;3.42;;
13327;SDS011;6733;51.044;3.746;2023-07-16T13:35:35;4.63;;;2.97;;
13327;SDS011;6733;51.044;3.746;2023-07-16T13:38:01;5.72;;;3.72;;
13327;SDS011;6733;51.044;3.746;2023-07-16T13:40:28;4.23;;;3.20;;
13327;SDS011;6733;51.044;3.746;2023-07-16T13:42:54;4.80;;;3.47;;
13327;SDS011;6733;51.044;3.746;2023-07-16T13:45:20;5.05;;;3.13;;
13327;SDS011;6733;51.044;3.746;2023-07-16T13:47:46;4.07;;;2.90;;
13327;SDS011;6733;51.044;3.746;2023-07-16T13:50:12;3.90;;;2.90;;
13327;SDS011;6733;51.044;3.746;2023-07-16T13:52:38;3.70;;;2.40;;
13327;SDS011;6733;51.044;3.746;2023-07-16T13:55:04;6.07;;;2.78;;
13327;SDS011;6733;51.044;3.746;2023-07-16T13:57:31;4.35;;;2.50;;
13327;SDS011;6733;51.044;3.746;2023-07-16T13:59:57;3.73;;;2.60;;
13327;SDS011;6733;51.044;3.746;2023-07-16T14:02:23;3.37;;;2.60;;
13327;SDS011;6733;51.044;3.746;2023-07-16T14:04:50;4.22;;;2.15;;
13327;SDS011;6733;51.044;3.746;2023-07-16T14:07:16;3.97;;;2.40;;
13327;SDS011;6733;51.044;3.746;2023-07-16T14:09:42;6.85;;;2.20;;
13327;SDS011;6733;51.044;3.746;2023-07-16T14:12:08;2.90;;;2.28;;
13327;SDS011;6733;51.044;3.746;2023-07-16T14:14:34;2.78;;;1.90;;
13327;SDS011;6733;51.044;3.746;2023-07-16T14:17:00;3.03;;;2.13;;
13327;SDS011;6733;51.044;3.746;2023-07-16T14:19:27;3.70;;;2.45;;
13327;SDS011;6733;51.044;3.746;2023-07-16T14:21:54;4.25;;;2.45;;
13327;SDS011;6733;51.044;3.746;2023-07-16T14:24:20;3.25;;;2.60;;
13327;SDS011;6733;51.044;3.746;2023-07-16T14:26:46;3.58;;;2.45;;
13327;SDS011;6733;51.044;3.746;2023-07-16T14:29:12;3.15;;;2.33;;
13327;SDS011;6733;51.044;3.746;2023-07-16T14:31:39;3.50;;;2.30;;
13327;SDS011;6733;51.044;3.746;2023-07-16T14:34:05;3.70;;;2.67;;
13327;SDS011;6733;51.044;3.746;2023-07-16T14:36:32;3.00;;;2.05;;
13327;SDS011;6733;51.044;3.746;2023-07-16T14:38:58;4.55;;;2.75;;
13327;SDS011;6733;51.044;3.746;2023-07-16T14:41:24;3.20;;;2.38;;
13327;SDS011;6733;51.044;3.746;2023-07-16T14:43:50;3.45;;;2.30;;
13327;SDS011;6733;51.044;3.746;2023-07-16T14:46:16;3.10;;;2.50;;
13327;SDS011;6733;51.044;3.746;2023-07-16T14:48:43;3.00;;;2.40;;
13327;SDS011;6733;51.044;3.746;2023-07-16T14:51:10;2.70;;;2.38;;
13327;SDS011;6733;51.044;3.746;2023-07-16T14:53:37;4.07;;;2.60;;
13327;SDS011;6733;51.044;3.746;2023-07-16T14:56:03;4.93;;;3.00;;
13327;SDS011;6733;51.044;3.746;2023-07-16T14:58:31;3.20;;;2.37;;
13327;SDS011;6733;51.044;3.746;2023-07-16T15:01:00;4.00;;;2.30;;